createdAt,value
2022-10-26T00:01:06.021Z,14.90
2022-10-26T00:03:34.386Z,14.90
2022-10-26T00:06:09.449Z,14.90
2022-10-26T00:08:37.013Z,16.00
2022-10-26T00:11:04.409Z,14.90
2022-10-26T00:13:31.767Z,14.90
2022-10-26T00:18:27.048Z,15.00
2022-10-26T00:20:54.101Z,15.00
2022-10-26T00:23:21.170Z,15.00
2022-10-26T00:25:55.445Z,15.00
2022-10-26T00:28:22.544Z,15.00
2022-10-26T00:30:49.652Z,15.00
2022-10-26T00:33:16.760Z,15.00
2022-10-26T00:35:46.240Z,14.50
2022-10-26T00:38:13.610Z,15.00
2022-10-26T00:40:40.793Z,15.00
2022-10-26T00:43:15.844Z,15.00
2022-10-26T00:45:42.967Z,15.00
2022-10-26T00:48:14.242Z,15.00
2022-10-26T00:50:44.362Z,15.00
2022-10-26T00:53:12.038Z,15.00
2022-10-26T00:55:41.725Z,15.00
2022-10-26T00:58:09.867Z,15.10
2022-10-26T01:00:37.165Z,15.10
2022-10-26T01:03:07.941Z,15.00
2022-10-26T01:05:36.427Z,15.00
2022-10-26T01:08:03.615Z,15.10
2022-10-26T01:10:30.687Z,15.10
2022-10-26T01:12:58.324Z,15.10
2022-10-26T01:15:31.002Z,15.10
2022-10-26T01:18:03.022Z,15.10
2022-10-26T01:20:45.155Z,14.40
2022-10-26T01:23:18.926Z,15.10
2022-10-26T01:25:48.778Z,15.40
2022-10-26T01:28:25.734Z,15.10
2022-10-26T01:30:53.707Z,15.10
2022-10-26T01:33:26.552Z,15.10
2022-10-26T01:35:56.424Z,15.80
2022-10-26T01:38:23.572Z,16.30
2022-10-26T01:41:00.813Z,15.20
2022-10-26T01:43:30.819Z,15.10
2022-10-26T01:45:58.523Z,15.10
2022-10-26T01:48:26.323Z,15.10
2022-10-26T01:50:53.996Z,15.10
2022-10-26T01:53:21.328Z,15.10
2022-10-26T01:55:48.667Z,15.10
2022-10-26T01:58:35.962Z,15.10
2022-10-26T02:01:03.015Z,15.10
2022-10-26T02:03:43.798Z,15.10
2022-10-26T02:06:19.177Z,15.00
2022-10-26T02:08:58.278Z,15.10
2022-10-26T02:11:32.577Z,15.10
2022-10-26T02:14:00.035Z,15.00
2022-10-26T02:16:30.662Z,15.10
2022-10-26T02:18:57.790Z,15.10
2022-10-26T02:21:27.996Z,15.10
2022-10-26T02:23:57.158Z,15.10
2022-10-26T02:26:26.062Z,15.10
2022-10-26T02:28:54.874Z,15.10
2022-10-26T02:31:22.234Z,15.10
2022-10-26T02:33:50.667Z,15.20
2022-10-26T02:36:20.453Z,14.60
2022-10-26T02:38:48.148Z,15.10
2022-10-26T02:41:15.886Z,15.10
2022-10-26T02:43:45.523Z,15.10
2022-10-26T02:46:14.460Z,15.10
2022-10-26T02:48:41.572Z,15.90
2022-10-26T02:51:11.906Z,15.10
2022-10-26T02:53:38.923Z,15.10
2022-10-26T02:56:16.489Z,15.10
2022-10-26T02:58:45.574Z,15.10
2022-10-26T03:01:13.538Z,15.00
2022-10-26T03:03:40.710Z,15.00
2022-10-26T03:06:07.817Z,15.00
2022-10-26T03:08:34.913Z,15.00
2022-10-26T03:11:01.995Z,15.00
2022-10-26T03:13:29.092Z,15.00
2022-10-26T03:15:57.626Z,14.90
2022-10-26T03:18:24.700Z,15.00
2022-10-26T03:20:51.742Z,15.00
2022-10-26T03:23:18.841Z,15.00
2022-10-26T03:25:45.921Z,14.90
2022-10-26T03:28:13.064Z,14.90
2022-10-26T03:30:40.152Z,14.90
2022-10-26T03:33:07.256Z,14.90
2022-10-26T03:35:34.304Z,14.90
2022-10-26T03:38:01.356Z,14.90
2022-10-26T03:40:28.416Z,14.90
2022-10-26T03:42:55.485Z,14.80
2022-10-26T03:45:22.580Z,14.80
2022-10-26T03:47:50.036Z,14.80
2022-10-26T03:50:18.218Z,14.80
2022-10-26T03:52:46.809Z,14.80
2022-10-26T03:55:14.341Z,14.70
2022-10-26T03:57:45.358Z,14.70
2022-10-26T04:00:15.328Z,14.50
2022-10-26T04:02:43.005Z,14.80
2022-10-26T04:05:10.179Z,14.90
2022-10-26T04:07:37.236Z,14.70
2022-10-26T04:10:05.300Z,14.70
2022-10-26T04:12:32.412Z,14.70
2022-10-26T04:14:59.492Z,14.10
2022-10-26T04:17:26.580Z,14.70
2022-10-26T04:19:53.925Z,14.70
2022-10-26T04:22:20.993Z,14.70
2022-10-26T04:24:49.348Z,14.80
2022-10-26T04:27:16.403Z,14.90
2022-10-26T04:29:43.466Z,14.80
2022-10-26T04:32:10.572Z,14.90
2022-10-26T04:34:37.693Z,14.90
2022-10-26T04:37:04.756Z,14.90
2022-10-26T04:39:31.924Z,13.70
2022-10-26T04:41:59.034Z,14.90
2022-10-26T04:44:26.081Z,15.00
2022-10-26T04:46:53.212Z,15.00
2022-10-26T04:49:20.352Z,15.00
2022-10-26T04:51:47.427Z,15.00
2022-10-26T04:54:15.016Z,15.00
2022-10-26T04:56:42.292Z,15.10
2022-10-26T04:59:09.487Z,15.10
2022-10-26T05:01:39.170Z,15.10
2022-10-26T05:04:11.726Z,15.10
2022-10-26T05:06:38.995Z,15.10
2022-10-26T05:09:06.130Z,15.20
2022-10-26T05:11:33.205Z,15.20
2022-10-26T05:14:00.276Z,15.30
2022-10-26T05:16:27.348Z,15.30
2022-10-26T05:18:54.565Z,15.30
2022-10-26T05:21:21.606Z,15.30
2022-10-26T05:23:55.628Z,15.30
2022-10-26T05:26:23.710Z,15.30
2022-10-26T05:28:51.371Z,15.30
2022-10-26T05:31:18.491Z,15.20
2022-10-26T05:33:48.752Z,15.20
2022-10-26T05:36:16.408Z,15.20
2022-10-26T05:38:43.561Z,15.10
2022-10-26T05:41:10.661Z,15.10
2022-10-26T05:43:37.757Z,15.10
2022-10-26T05:46:05.156Z,15.10
2022-10-26T05:48:32.386Z,15.10
2022-10-26T05:51:00.540Z,16.10
2022-10-26T05:53:27.832Z,15.00
2022-10-26T05:55:55.537Z,15.10
2022-10-26T05:58:22.986Z,15.10
2022-10-26T06:01:02.983Z,15.10
2022-10-26T06:03:46.023Z,15.00
2022-10-26T06:06:13.436Z,15.00
2022-10-26T06:08:43.191Z,15.00
2022-10-26T06:11:10.629Z,15.00
2022-10-26T06:13:37.890Z,15.00
2022-10-26T06:16:04.961Z,15.00
2022-10-26T06:18:50.652Z,15.00
2022-10-26T06:21:20.720Z,15.00
2022-10-26T06:23:53.536Z,15.10
2022-10-26T06:26:37.886Z,15.10
2022-10-26T06:29:08.080Z,15.80
2022-10-26T06:31:35.193Z,15.10
2022-10-26T06:34:02.360Z,15.10
2022-10-26T06:36:30.493Z,15.10
2022-10-26T06:39:00.662Z,15.00
2022-10-26T06:41:28.937Z,15.00
2022-10-26T06:43:56.223Z,15.00
2022-10-26T06:46:32.479Z,15.00
2022-10-26T06:49:08.498Z,14.90
2022-10-26T06:51:56.101Z,14.90
2022-10-26T06:54:31.657Z,14.90
2022-10-26T06:56:58.908Z,14.90
2022-10-26T06:59:32.046Z,15.00
2022-10-26T07:02:02.863Z,15.00
2022-10-26T07:04:32.800Z,15.10
2022-10-26T07:06:59.917Z,15.40
2022-10-26T07:09:27.010Z,15.10
2022-10-26T07:11:54.061Z,15.20
2022-10-26T07:14:21.128Z,15.20
2022-10-26T07:16:48.185Z,15.10
2022-10-26T07:19:15.223Z,15.80
2022-10-26T07:21:42.260Z,14.80
2022-10-26T07:24:09.408Z,15.10
2022-10-26T07:26:36.487Z,15.10
2022-10-26T07:29:03.632Z,15.10
2022-10-26T07:31:30.722Z,15.10
2022-10-26T07:33:57.878Z,15.10
2022-10-26T07:36:24.989Z,15.80
2022-10-26T07:38:53.167Z,15.10
2022-10-26T07:41:20.428Z,15.10
2022-10-26T07:43:49.158Z,15.10
2022-10-26T07:46:16.635Z,15.10
2022-10-26T07:51:11.955Z,15.20
2022-10-26T07:53:39.052Z,15.20
2022-10-26T07:56:06.533Z,15.10
2022-10-26T07:58:33.943Z,15.20
2022-10-26T08:01:08.037Z,15.10
2022-10-26T08:03:35.283Z,15.10
2022-10-26T08:06:04.190Z,15.10
2022-10-26T08:08:31.798Z,15.20
2022-10-26T08:10:59.164Z,15.20
2022-10-26T08:13:26.275Z,15.20
2022-10-26T08:15:57.163Z,15.30
2022-10-26T08:18:24.464Z,15.30
2022-10-26T08:20:51.567Z,15.30
2022-10-26T08:23:18.741Z,15.30
2022-10-26T08:25:45.848Z,15.30
2022-10-26T08:28:13.023Z,15.30
2022-10-26T08:30:41.107Z,15.40
2022-10-26T08:33:11.585Z,15.40
2022-10-26T08:35:38.790Z,15.50
2022-10-26T08:38:05.958Z,15.60
2022-10-26T08:40:34.335Z,15.60
2022-10-26T08:43:07.566Z,15.60
2022-10-26T08:45:39.138Z,15.70
2022-10-26T08:48:11.099Z,15.70
2022-10-26T08:50:42.927Z,15.80
2022-10-26T08:53:17.619Z,16.60
2022-10-26T08:55:47.175Z,15.70
2022-10-26T08:58:16.419Z,16.00
2022-10-26T09:00:44.319Z,16.00
2022-10-26T09:03:15.594Z,16.10
2022-10-26T09:05:49.616Z,16.10
2022-10-26T09:08:27.771Z,16.20
2022-10-26T09:11:16.755Z,16.20
2022-10-26T09:13:46.923Z,16.30
2022-10-26T09:16:33.813Z,16.30
2022-10-26T09:19:19.624Z,16.40
2022-10-26T09:21:46.702Z,16.40
2022-10-26T09:24:15.970Z,16.40
2022-10-26T09:26:53.270Z,16.40
2022-10-26T09:29:23.302Z,16.50
2022-10-26T09:31:53.595Z,16.50
2022-10-26T09:34:24.193Z,16.50
2022-10-26T09:36:58.255Z,16.50
2022-10-26T09:39:42.228Z,16.50
2022-10-26T09:42:29.286Z,16.60
2022-10-26T09:45:01.950Z,17.20
2022-10-26T09:47:37.339Z,16.70
2022-10-26T09:50:04.613Z,16.50
2022-10-26T09:52:31.725Z,16.70
2022-10-26T09:54:58.799Z,16.70
2022-10-26T09:57:26.471Z,16.70
2022-10-26T09:59:55.760Z,16.70
2022-10-26T10:02:40.017Z,16.70
2022-10-26T10:05:49.878Z,16.80
2022-10-26T10:08:23.899Z,16.80
2022-10-26T10:10:55.183Z,16.90
2022-10-26T10:13:23.102Z,16.90
2022-10-26T10:15:57.637Z,16.90
2022-10-26T10:18:25.064Z,17.00
2022-10-26T10:20:53.980Z,17.00
2022-10-26T10:23:34.960Z,17.00
2022-10-26T10:26:07.375Z,17.00
2022-10-26T10:28:35.084Z,17.00
2022-10-26T10:31:24.195Z,16.60
2022-10-26T10:33:53.005Z,16.70
2022-10-26T10:36:21.305Z,17.10
2022-10-26T10:38:49.598Z,17.10
2022-10-26T10:41:36.995Z,17.10
2022-10-26T10:44:04.077Z,17.10
2022-10-26T10:46:31.250Z,17.20
2022-10-26T10:49:03.136Z,17.20
2022-10-26T10:51:35.247Z,17.30
2022-10-26T10:54:03.194Z,17.20
2022-10-26T10:56:35.433Z,17.30
2022-10-26T10:59:02.593Z,17.30
2022-10-26T11:01:38.758Z,17.30
2022-10-26T11:04:25.446Z,17.30
2022-10-26T11:06:57.522Z,17.30
2022-10-26T11:09:26.978Z,17.30
2022-10-26T11:11:55.594Z,17.30
2022-10-26T11:14:32.841Z,17.30
2022-10-26T11:17:18.541Z,17.20
2022-10-26T11:19:45.615Z,17.20
2022-10-26T11:22:19.599Z,17.20
2022-10-26T11:24:51.053Z,17.80
2022-10-26T11:27:21.566Z,17.20
2022-10-26T11:29:51.786Z,17.20
2022-10-26T11:32:21.572Z,17.30
2022-10-26T11:34:56.403Z,17.20
2022-10-26T11:37:46.589Z,17.30
2022-10-26T11:40:31.213Z,17.70
2022-10-26T11:43:11.916Z,17.30
2022-10-26T11:45:43.265Z,17.40
2022-10-26T11:48:17.096Z,17.40
2022-10-26T11:50:50.317Z,17.30
2022-10-26T11:53:19.133Z,17.20
2022-10-26T11:55:52.076Z,17.40
2022-10-26T11:58:19.251Z,17.40
2022-10-26T12:00:55.318Z,17.40
2022-10-26T12:03:25.500Z,17.50
2022-10-26T12:05:52.878Z,17.50
2022-10-26T12:08:38.976Z,17.50
2022-10-26T12:13:58.237Z,17.50
2022-10-26T12:16:37.480Z,17.60
2022-10-26T12:19:16.623Z,17.60
2022-10-26T12:21:44.280Z,17.60
2022-10-26T12:24:26.530Z,17.60
2022-10-26T12:26:55.023Z,17.60
2022-10-26T12:29:26.224Z,17.60
2022-10-26T12:31:53.273Z,17.60
2022-10-26T12:34:25.492Z,17.50
2022-10-26T12:36:55.333Z,17.50
2022-10-26T12:39:25.250Z,18.00
2022-10-26T12:41:59.342Z,17.60
2022-10-26T12:44:36.844Z,17.60
2022-10-26T12:47:04.690Z,17.50
2022-10-26T12:49:50.437Z,17.50
2022-10-26T12:52:18.533Z,17.50
2022-10-26T12:54:52.025Z,17.50
2022-10-26T12:57:24.384Z,17.50
2022-10-26T12:59:54.283Z,17.50
2022-10-26T13:02:30.277Z,17.50
2022-10-26T13:05:07.764Z,17.40
2022-10-26T13:07:37.278Z,17.50
2022-10-26T13:10:24.497Z,17.50
2022-10-26T13:12:53.223Z,17.40
2022-10-26T13:15:22.391Z,17.50
2022-10-26T13:18:07.663Z,17.50
2022-10-26T13:20:36.256Z,17.40
2022-10-26T13:23:16.880Z,17.40
2022-10-26T13:26:01.121Z,17.40
2022-10-26T13:28:43.832Z,17.40
2022-10-26T13:31:10.884Z,17.10
2022-10-26T13:33:39.735Z,17.40
2022-10-26T13:36:14.731Z,17.40
2022-10-26T13:38:41.915Z,16.60
2022-10-26T13:41:15.473Z,17.40
2022-10-26T13:43:43.330Z,17.40
2022-10-26T13:46:19.513Z,17.50
2022-10-26T13:48:47.253Z,17.50
2022-10-26T13:51:25.129Z,17.50
2022-10-26T13:54:00.188Z,17.50
2022-10-26T13:56:45.881Z,17.50
2022-10-26T13:59:16.559Z,17.40
2022-10-26T14:01:43.724Z,17.50
2022-10-26T14:04:38.262Z,17.50
2022-10-26T14:07:05.461Z,17.40
2022-10-26T14:09:32.541Z,17.50
2022-10-26T14:12:00.714Z,17.30
2022-10-26T14:14:35.703Z,17.30
2022-10-26T14:17:03.119Z,17.40
2022-10-26T14:19:32.067Z,17.40
2022-10-26T14:21:59.809Z,17.40
2022-10-26T14:24:46.179Z,17.40
2022-10-26T14:27:18.055Z,17.40
2022-10-26T14:29:49.815Z,17.40
2022-10-26T14:32:21.390Z,17.80
2022-10-26T14:34:48.606Z,17.40
2022-10-26T14:37:25.927Z,17.40
2022-10-26T14:39:53.322Z,17.30
2022-10-26T14:42:31.041Z,17.40
2022-10-26T14:44:58.662Z,17.60
2022-10-26T14:47:35.686Z,17.40
2022-10-26T14:50:03.569Z,17.40
2022-10-26T14:52:32.780Z,17.40
2022-10-26T14:54:59.976Z,18.10
2022-10-26T14:57:31.883Z,17.40
2022-10-26T15:00:16.268Z,17.40
2022-10-26T15:02:47.172Z,17.30
2022-10-26T15:05:22.164Z,17.30
2022-10-26T15:07:49.938Z,17.40
2022-10-26T15:10:36.414Z,17.30
2022-10-26T15:13:10.170Z,17.20
2022-10-26T15:15:39.667Z,17.20
2022-10-26T15:18:15.467Z,17.10
2022-10-26T15:20:47.064Z,17.60
2022-10-26T15:23:14.671Z,17.10
2022-10-26T15:25:48.820Z,17.00
2022-10-26T15:28:44.562Z,17.10
2022-10-26T15:31:11.791Z,17.10
2022-10-26T15:33:40.256Z,17.00
2022-10-26T15:36:14.896Z,16.90
2022-10-26T15:38:42.627Z,17.10
2022-10-26T15:41:41.555Z,16.90
2022-10-26T15:44:19.605Z,16.90
2022-10-26T15:46:47.442Z,16.90
2022-10-26T15:49:16.224Z,17.30
2022-10-26T15:51:44.340Z,16.90
2022-10-26T15:54:11.465Z,16.80
2022-10-26T15:56:43.848Z,16.80
2022-10-26T15:59:13.995Z,16.80
2022-10-26T16:01:41.170Z,16.70
2022-10-26T16:04:09.069Z,16.70
2022-10-26T16:06:36.238Z,16.50
2022-10-26T16:09:04.755Z,16.70
2022-10-26T16:11:31.840Z,16.60
2022-10-26T16:14:02.686Z,16.60
2022-10-26T16:16:31.440Z,16.40
2022-10-26T16:19:12.177Z,16.60
2022-10-26T16:21:45.732Z,16.50
2022-10-26T16:24:12.796Z,16.50
2022-10-26T16:26:39.915Z,16.50
2022-10-26T16:29:06.978Z,16.40
2022-10-26T16:31:34.071Z,16.40
2022-10-26T16:34:04.118Z,16.50
2022-10-26T16:36:34.299Z,16.40
2022-10-26T16:41:29.510Z,16.30
2022-10-26T16:43:56.694Z,16.30
2022-10-26T16:46:24.243Z,16.30
2022-10-26T16:48:51.597Z,16.30
2022-10-26T16:51:22.953Z,16.20
2022-10-26T16:53:51.638Z,16.10
2022-10-26T16:56:20.238Z,16.10
2022-10-26T16:58:47.426Z,16.10
2022-10-26T17:01:18.328Z,16.10
2022-10-26T17:03:46.355Z,16.00
2022-10-26T17:06:13.560Z,16.00
2022-10-26T17:08:40.944Z,16.00
2022-10-26T17:11:09.241Z,15.90
2022-10-26T17:13:37.005Z,16.00
2022-10-26T17:16:05.261Z,15.90
2022-10-26T17:18:32.344Z,16.00
2022-10-26T17:20:59.473Z,15.90
2022-10-26T17:23:26.622Z,15.90
2022-10-26T17:25:53.764Z,15.90
2022-10-26T17:28:21.241Z,15.90
2022-10-26T17:30:48.454Z,15.90
2022-10-26T17:33:15.573Z,15.80
2022-10-26T17:35:42.935Z,15.80
2022-10-26T17:38:10.259Z,15.90
2022-10-26T17:40:37.366Z,15.90
2022-10-26T17:43:04.457Z,17.00
2022-10-26T17:45:31.597Z,15.80
2022-10-26T17:47:58.704Z,15.70
2022-10-26T17:50:25.820Z,15.70
2022-10-26T17:52:54.816Z,15.70
2022-10-26T17:55:22.063Z,15.60
2022-10-26T17:57:49.496Z,15.50
2022-10-26T18:00:18.306Z,15.60
2022-10-26T18:02:45.485Z,15.60
2022-10-26T18:05:12.800Z,15.60
2022-10-26T18:07:39.913Z,15.60
2022-10-26T18:10:32.797Z,15.50
2022-10-26T18:12:57.190Z,15.50
2022-10-26T18:15:24.901Z,15.50
2022-10-26T18:17:55.556Z,15.40
2022-10-26T18:20:27.153Z,15.50
2022-10-26T18:22:55.178Z,15.40
2022-10-26T18:25:22.482Z,15.40
2022-10-26T18:27:49.654Z,15.30
2022-10-26T18:30:16.898Z,15.40
2022-10-26T18:32:44.078Z,15.40
2022-10-26T18:35:11.198Z,15.40
2022-10-26T18:37:38.390Z,15.30
2022-10-26T18:40:05.854Z,15.30
2022-10-26T18:42:32.943Z,15.30
2022-10-26T18:45:03.460Z,15.30
2022-10-26T18:47:31.265Z,15.10
2022-10-26T18:49:59.458Z,15.20
2022-10-26T18:52:29.947Z,15.10
2022-10-26T18:54:57.423Z,15.00
2022-10-26T18:57:29.148Z,15.10
2022-10-26T18:59:56.406Z,15.00
2022-10-26T19:02:23.545Z,14.90
2022-10-26T19:04:53.146Z,14.90
2022-10-26T19:07:20.375Z,14.90
2022-10-26T19:09:47.472Z,14.90
2022-10-26T19:12:14.689Z,14.80
2022-10-26T19:14:42.347Z,14.80
2022-10-26T19:17:10.503Z,14.80
2022-10-26T19:19:37.925Z,14.80
2022-10-26T19:22:05.045Z,14.70
2022-10-26T19:24:32.159Z,14.60
2022-10-26T19:26:59.357Z,14.70
2022-10-26T19:29:26.466Z,14.70
2022-10-26T19:31:53.652Z,14.70
2022-10-26T19:34:20.946Z,14.70
2022-10-26T19:36:48.966Z,14.70
2022-10-26T19:39:16.834Z,14.70
2022-10-26T19:41:45.960Z,14.70
2022-10-26T19:44:14.456Z,14.80
2022-10-26T19:46:43.287Z,14.70
2022-10-26T19:49:10.548Z,14.70
2022-10-26T19:51:37.976Z,14.70
2022-10-26T19:54:07.241Z,14.80
2022-10-26T19:56:35.204Z,14.70
2022-10-26T19:59:02.318Z,14.70
2022-10-26T20:01:29.638Z,14.80
2022-10-26T20:03:57.300Z,14.70
2022-10-26T20:06:24.544Z,14.70
2022-10-26T20:08:51.661Z,14.60
2022-10-26T20:11:19.193Z,13.90
2022-10-26T20:13:46.884Z,14.60
2022-10-26T20:16:14.490Z,14.60
2022-10-26T20:18:45.735Z,14.60
2022-10-26T20:21:16.551Z,14.50
2022-10-26T20:23:44.185Z,14.50
2022-10-26T20:26:18.268Z,14.50
2022-10-26T20:28:52.922Z,14.50
2022-10-26T20:31:21.304Z,14.40
2022-10-26T20:33:52.812Z,14.50
2022-10-26T20:36:20.442Z,14.50
2022-10-26T20:38:48.228Z,14.40
2022-10-26T20:41:15.466Z,14.40
2022-10-26T20:43:42.683Z,14.40
2022-10-26T20:46:10.599Z,14.40
2022-10-26T20:48:38.986Z,14.30
2022-10-26T20:51:15.525Z,14.20
2022-10-26T20:53:49.268Z,14.30
2022-10-26T20:56:34.655Z,14.30
2022-10-26T20:59:03.706Z,14.20
2022-10-26T21:01:35.361Z,14.20
2022-10-26T21:04:03.921Z,14.90
2022-10-26T21:06:39.854Z,14.20
2022-10-26T21:09:07.549Z,14.20
2022-10-26T21:11:34.884Z,14.20
2022-10-26T21:14:03.329Z,14.20
2022-10-26T21:16:30.498Z,14.20
2022-10-26T21:18:58.785Z,14.20
2022-10-26T21:21:26.365Z,14.20
2022-10-26T21:23:54.063Z,14.20
2022-10-26T21:26:21.268Z,14.20
2022-10-26T21:28:48.680Z,14.20
2022-10-26T21:31:16.959Z,14.30
2022-10-26T21:33:45.830Z,14.20
2022-10-26T21:36:13.415Z,14.20
2022-10-26T21:38:41.471Z,14.30
2022-10-26T21:41:10.133Z,14.30
2022-10-26T21:43:38.622Z,15.00
2022-10-26T21:46:05.899Z,14.30
2022-10-26T21:48:33.505Z,14.30
2022-10-26T21:51:01.376Z,14.30
2022-10-26T21:53:28.549Z,14.40
2022-10-26T21:56:05.068Z,14.30
2022-10-26T21:58:32.137Z,14.30
2022-10-26T22:01:06.711Z,14.30
2022-10-26T22:03:34.057Z,14.50
2022-10-26T22:06:01.313Z,14.30
2022-10-26T22:08:28.726Z,14.20
2022-10-26T22:10:56.066Z,14.30
2022-10-26T22:13:23.314Z,14.20
2022-10-26T22:16:00.111Z,14.20
2022-10-26T22:18:27.205Z,14.20
2022-10-26T22:20:57.981Z,14.30
2022-10-26T22:23:25.340Z,14.10
2022-10-26T22:25:52.431Z,15.80
2022-10-26T22:28:19.506Z,14.20
2022-10-26T22:30:46.658Z,14.30
2022-10-26T22:33:13.713Z,14.30
2022-10-26T22:35:40.977Z,14.30
2022-10-26T22:38:08.064Z,14.30
2022-10-26T22:40:35.153Z,14.30
2022-10-26T22:43:02.245Z,14.10
2022-10-26T22:45:29.327Z,14.30
2022-10-26T22:47:56.456Z,14.30
2022-10-26T22:50:23.743Z,14.20
2022-10-26T22:52:51.013Z,14.20
2022-10-26T22:55:18.280Z,14.20
2022-10-26T22:57:45.408Z,14.80
2022-10-26T23:00:12.993Z,14.30
2022-10-26T23:02:40.062Z,14.20
2022-10-26T23:05:07.519Z,14.30
2022-10-26T23:07:34.625Z,14.20
2022-10-26T23:10:02.379Z,14.20
2022-10-26T23:12:29.434Z,14.20
2022-10-26T23:14:56.507Z,14.20
2022-10-26T23:17:23.614Z,14.20
2022-10-26T23:19:50.714Z,14.20
2022-10-26T23:22:17.811Z,14.10
2022-10-26T23:24:44.900Z,14.10
2022-10-26T23:27:11.983Z,14.10
2022-10-26T23:29:39.064Z,14.10
2022-10-26T23:32:06.177Z,14.10
2022-10-26T23:34:33.250Z,14.10
2022-10-26T23:37:00.558Z,14.10
2022-10-26T23:39:27.659Z,14.10
2022-10-26T23:41:54.914Z,14.10
2022-10-26T23:44:21.990Z,14.00
2022-10-26T23:46:49.084Z,14.20
2022-10-26T23:49:16.178Z,14.20
2022-10-26T23:51:43.247Z,14.20
2022-10-26T23:54:10.323Z,14.30
2022-10-26T23:56:37.425Z,14.10
2022-10-26T23:59:07.606Z,14.20
